createdAt,value
2022-12-25T00:00:53.665Z,10.80
2022-12-25T00:01:55.764Z,10.80
2022-12-25T00:02:58.499Z,10.70
2022-12-25T00:04:00.760Z,10.70
2022-12-25T00:05:03.704Z,10.70
2022-12-25T00:06:06.511Z,10.70
2022-12-25T00:07:08.560Z,10.70
2022-12-25T00:08:11.120Z,10.60
2022-12-25T00:09:13.140Z,10.70
2022-12-25T00:10:15.158Z,10.60
2022-12-25T00:11:19.966Z,10.60
2022-12-25T00:12:22.531Z,10.60
2022-12-25T00:13:24.690Z,10.60
2022-12-25T00:14:26.698Z,10.50
2022-12-25T00:15:28.817Z,10.50
2022-12-25T00:16:30.974Z,10.40
2022-12-25T00:17:33.829Z,10.40
2022-12-25T00:18:36.196Z,10.40
2022-12-25T00:19:38.246Z,10.40
2022-12-25T00:20:40.297Z,10.40
2022-12-25T00:21:42.391Z,10.30
2022-12-25T00:22:44.428Z,10.30
2022-12-25T00:23:47.116Z,10.30
2022-12-25T00:24:49.515Z,10.30
2022-12-25T00:25:52.901Z,10.20
2022-12-25T00:26:54.952Z,10.20
2022-12-25T00:27:57.703Z,10.20
2022-12-25T00:28:59.824Z,10.20
2022-12-25T00:30:07.905Z,10.20
2022-12-25T00:31:18.261Z,10.20
2022-12-25T00:32:20.326Z,10.20
2022-12-25T00:33:22.356Z,10.20
2022-12-25T00:34:24.364Z,10.20
2022-12-25T00:35:26.339Z,10.20
2022-12-25T00:36:28.335Z,10.20
2022-12-25T00:37:30.441Z,10.20
2022-12-25T00:38:33.965Z,10.10
2022-12-25T00:39:36.031Z,10.10
2022-12-25T00:40:45.186Z,10.20
2022-12-25T00:42:09.833Z,10.10
2022-12-25T00:43:12.152Z,10.10
2022-12-25T00:44:14.239Z,10.10
2022-12-25T00:45:17.472Z,10.10
2022-12-25T00:46:19.599Z,10.00
2022-12-25T00:47:21.912Z,10.00
2022-12-25T00:48:24.308Z,10.00
2022-12-25T00:49:26.392Z,10.00
2022-12-25T00:50:28.402Z,10.00
2022-12-25T00:51:30.590Z,10.00
2022-12-25T00:52:33.210Z,10.00
2022-12-25T00:53:35.300Z,10.00
2022-12-25T00:54:38.560Z,9.90
2022-12-25T00:55:40.538Z,9.90
2022-12-25T00:56:42.543Z,9.90
2022-12-25T00:57:44.529Z,9.90
2022-12-25T00:58:50.825Z,9.90
2022-12-25T00:59:52.814Z,9.90
2022-12-25T01:00:54.999Z,9.90
2022-12-25T01:02:17.088Z,9.90
2022-12-25T01:03:19.544Z,9.90
2022-12-25T01:04:21.532Z,9.90
2022-12-25T01:05:23.537Z,9.90
2022-12-25T01:06:25.924Z,9.90
2022-12-25T01:07:28.216Z,9.90
2022-12-25T01:08:33.253Z,9.90
2022-12-25T01:09:53.977Z,9.90
2022-12-25T01:10:58.238Z,9.90
2022-12-25T01:12:00.363Z,9.80
2022-12-25T01:13:02.610Z,9.80
2022-12-25T01:14:05.038Z,9.80
2022-12-25T01:15:09.532Z,9.80
2022-12-25T01:16:12.280Z,9.80
2022-12-25T01:17:15.144Z,9.80
2022-12-25T01:18:17.326Z,9.80
2022-12-25T01:19:21.385Z,9.80
2022-12-25T01:20:23.390Z,9.80
2022-12-25T01:21:25.631Z,9.80
2022-12-25T01:22:27.818Z,9.80
2022-12-25T01:23:30.017Z,9.70
2022-12-25T01:24:31.995Z,9.70
2022-12-25T01:25:34.202Z,9.70
2022-12-25T01:26:38.792Z,9.70
2022-12-25T01:27:41.856Z,9.70
2022-12-25T01:28:43.884Z,9.70
2022-12-25T01:29:47.008Z,9.70
2022-12-25T01:30:49.726Z,9.70
2022-12-25T01:31:51.699Z,9.60
2022-12-25T01:32:53.664Z,9.60
2022-12-25T01:33:55.888Z,9.60
2022-12-25T01:34:57.896Z,9.60
2022-12-25T01:36:01.410Z,9.60
2022-12-25T01:37:03.695Z,9.60
2022-12-25T01:38:05.683Z,9.60
2022-12-25T01:39:07.800Z,9.60
2022-12-25T01:40:10.571Z,9.60
2022-12-25T01:41:14.963Z,9.60
2022-12-25T01:42:18.992Z,9.60
2022-12-25T01:43:28.596Z,9.60
2022-12-25T01:44:36.402Z,9.60
2022-12-25T01:45:43.821Z,9.60
2022-12-25T01:46:46.598Z,9.60
2022-12-25T01:47:49.148Z,9.60
2022-12-25T01:48:53.864Z,9.60
2022-12-25T01:49:55.934Z,9.60
2022-12-25T01:51:20.315Z,9.60
2022-12-25T01:52:25.199Z,9.70
2022-12-25T01:53:27.551Z,9.70
2022-12-25T01:54:34.588Z,9.70
2022-12-25T01:55:38.267Z,9.70
2022-12-25T01:56:41.601Z,9.80
2022-12-25T01:57:44.491Z,9.80
2022-12-25T01:58:47.329Z,9.80
2022-12-25T01:59:49.968Z,9.90
2022-12-25T02:00:52.826Z,9.90
2022-12-25T02:01:58.239Z,9.90
2022-12-25T02:03:00.912Z,10.00
2022-12-25T02:04:41.666Z,10.00
2022-12-25T02:05:45.854Z,10.00
2022-12-25T02:06:51.605Z,10.10
2022-12-25T02:07:54.839Z,10.10
2022-12-25T02:08:59.271Z,10.20
2022-12-25T02:10:01.459Z,10.20
2022-12-25T02:11:03.772Z,10.20
2022-12-25T02:12:08.038Z,10.10
2022-12-25T02:13:10.269Z,10.20
2022-12-25T02:14:12.521Z,10.20
2022-12-25T02:15:17.843Z,10.20
2022-12-25T02:16:22.909Z,10.20
2022-12-25T02:17:37.238Z,10.20
2022-12-25T02:18:43.846Z,10.20
2022-12-25T02:20:11.904Z,10.20
2022-12-25T02:21:51.984Z,10.30
2022-12-25T02:23:31.132Z,10.30
2022-12-25T02:25:02.770Z,10.40
2022-12-25T02:26:14.983Z,10.40
2022-12-25T02:27:55.552Z,10.50
2022-12-25T02:29:17.939Z,10.50
2022-12-25T02:30:20.176Z,10.60
2022-12-25T02:31:29.274Z,10.50
2022-12-25T02:32:37.497Z,10.60
2022-12-25T02:34:07.887Z,10.60
2022-12-25T02:35:23.873Z,10.60
2022-12-25T02:36:32.702Z,10.70
2022-12-25T02:37:41.252Z,10.60
2022-12-25T02:39:05.504Z,10.60
2022-12-25T02:40:19.626Z,10.70
2022-12-25T02:41:22.237Z,10.70
2022-12-25T02:43:13.231Z,10.70
2022-12-25T02:44:39.210Z,10.70
2022-12-25T02:46:06.071Z,10.70
2022-12-25T02:47:45.443Z,10.70
2022-12-25T02:49:14.286Z,10.70
2022-12-25T02:50:35.981Z,10.70
2022-12-25T02:52:00.868Z,10.70
2022-12-25T02:53:24.168Z,10.70
2022-12-25T02:54:52.718Z,10.70
2022-12-25T02:56:15.283Z,10.60
2022-12-25T02:57:39.320Z,10.60
2022-12-25T02:59:01.177Z,10.60
2022-12-25T03:00:24.995Z,10.50
2022-12-25T03:01:48.681Z,10.50
2022-12-25T03:03:11.368Z,10.40
2022-12-25T03:04:37.539Z,10.40
2022-12-25T03:06:00.168Z,10.40
2022-12-25T03:07:07.685Z,10.40
2022-12-25T03:08:21.223Z,10.30
2022-12-25T03:09:46.003Z,10.30
2022-12-25T03:11:18.627Z,10.20
2022-12-25T03:12:23.765Z,10.20
2022-12-25T03:13:33.593Z,10.20
2022-12-25T03:14:55.934Z,10.20
2022-12-25T03:16:16.904Z,10.20
2022-12-25T03:17:19.048Z,10.20
2022-12-25T03:18:24.621Z,10.10
2022-12-25T03:19:50.637Z,10.10
2022-12-25T03:21:12.772Z,10.10
